sensor_id;sensor_type;location;lat;lon;timestamp;temperature;humidity
12819;DHT22;6474;53.474;9.894;2023-04-03T00:00:48;1.50;80.80
12819;DHT22;6474;53.474;9.894;2023-04-03T00:03:17;1.50;80.80
12819;DHT22;6474;53.474;9.894;2023-04-03T00:05:46;1.50;80.90
12819;DHT22;6474;53.474;9.894;2023-04-03T00:08:15;1.50;80.90
12819;DHT22;6474;53.474;9.894;2023-04-03T00:10:43;1.50;80.90
12819;DHT22;6474;53.474;9.894;2023-04-03T00:13:11;1.50;80.90
12819;DHT22;6474;53.474;9.894;2023-04-03T00:15:39;1.50;80.80
12819;DHT22;6474;53.474;9.894;2023-04-03T00:18:08;1.40;80.70
12819;DHT22;6474;53.474;9.894;2023-04-03T00:20:36;1.40;80.80
12819;DHT22;6474;53.474;9.894;2023-04-03T00:23:06;1.40;80.80
12819;DHT22;6474;53.474;9.894;2023-04-03T00:25:34;1.30;80.70
12819;DHT22;6474;53.474;9.894;2023-04-03T00:28:02;1.30;80.80
12819;DHT22;6474;53.474;9.894;2023-04-03T00:30:31;1.30;80.90
12819;DHT22;6474;53.474;9.894;2023-04-03T00:32:59;1.20;80.80
12819;DHT22;6474;53.474;9.894;2023-04-03T00:35:28;1.20;80.90
12819;DHT22;6474;53.474;9.894;2023-04-03T00:37:56;1.20;81.00
12819;DHT22;6474;53.474;9.894;2023-04-03T00:40:26;1.10;80.90
12819;DHT22;6474;53.474;9.894;2023-04-03T00:42:57;1.10;81.00
12819;DHT22;6474;53.474;9.894;2023-04-03T00:45:34;1.10;81.00
12819;DHT22;6474;53.474;9.894;2023-04-03T00:48:05;1.00;80.90
12819;DHT22;6474;53.474;9.894;2023-04-03T00:50:36;1.00;81.00
12819;DHT22;6474;53.474;9.894;2023-04-03T00:53:06;1.00;80.90
12819;DHT22;6474;53.474;9.894;2023-04-03T00:55:38;1.00;80.90
12819;DHT22;6474;53.474;9.894;2023-04-03T00:58:06;1.00;80.90
12819;DHT22;6474;53.474;9.894;2023-04-03T01:00:36;1.00;80.90
12819;DHT22;6474;53.474;9.894;2023-04-03T01:03:05;0.90;80.90
12819;DHT22;6474;53.474;9.894;2023-04-03T01:05:33;0.90;80.90
12819;DHT22;6474;53.474;9.894;2023-04-03T01:08:01;0.80;80.80
12819;DHT22;6474;53.474;9.894;2023-04-03T01:10:29;0.80;80.90
12819;DHT22;6474;53.474;9.894;2023-04-03T01:12:59;0.70;80.90
12819;DHT22;6474;53.474;9.894;2023-04-03T01:15:28;0.70;81.00
12819;DHT22;6474;53.474;9.894;2023-04-03T01:17:57;0.70;81.00
12819;DHT22;6474;53.474;9.894;2023-04-03T01:24:07;0.70;81.10
12819;DHT22;6474;53.474;9.894;2023-04-03T01:26:36;0.60;81.10
12819;DHT22;6474;53.474;9.894;2023-04-03T01:29:05;0.60;81.20
12819;DHT22;6474;53.474;9.894;2023-04-03T01:31:46;0.60;81.20
12819;DHT22;6474;53.474;9.894;2023-04-03T01:34:14;0.60;81.20
12819;DHT22;6474;53.474;9.894;2023-04-03T01:36:42;0.60;81.80
12819;DHT22;6474;53.474;9.894;2023-04-03T01:39:10;0.60;81.00
12819;DHT22;6474;53.474;9.894;2023-04-03T01:41:38;0.60;81.00
12819;DHT22;6474;53.474;9.894;2023-04-03T01:44:06;0.50;81.00
12819;DHT22;6474;53.474;9.894;2023-04-03T01:46:34;0.50;81.10
12819;DHT22;6474;53.474;9.894;2023-04-03T01:49:05;0.50;81.10
12819;DHT22;6474;53.474;9.894;2023-04-03T01:51:33;0.50;81.30
12819;DHT22;6474;53.474;9.894;2023-04-03T01:54:01;0.40;81.30
12819;DHT22;6474;53.474;9.894;2023-04-03T01:56:29;0.40;81.30
12819;DHT22;6474;53.474;9.894;2023-04-03T01:58:57;0.40;81.30
12819;DHT22;6474;53.474;9.894;2023-04-03T02:01:25;0.40;81.30
12819;DHT22;6474;53.474;9.894;2023-04-03T02:03:53;0.40;81.30
12819;DHT22;6474;53.474;9.894;2023-04-03T02:06:22;0.40;81.30
12819;DHT22;6474;53.474;9.894;2023-04-03T02:08:50;0.40;81.30
12819;DHT22;6474;53.474;9.894;2023-04-03T02:11:18;0.40;81.30
12819;DHT22;6474;53.474;9.894;2023-04-03T02:13:46;0.30;81.20
12819;DHT22;6474;53.474;9.894;2023-04-03T02:16:14;0.40;81.30
12819;DHT22;6474;53.474;9.894;2023-04-03T02:18:42;0.30;81.10
12819;DHT22;6474;53.474;9.894;2023-04-03T02:21:10;0.30;81.10
12819;DHT22;6474;53.474;9.894;2023-04-03T02:23:40;0.30;81.10
12819;DHT22;6474;53.474;9.894;2023-04-03T02:26:09;0.30;81.20
12819;DHT22;6474;53.474;9.894;2023-04-03T02:28:38;0.20;81.10
12819;DHT22;6474;53.474;9.894;2023-04-03T02:31:07;0.20;81.10
12819;DHT22;6474;53.474;9.894;2023-04-03T02:33:35;0.20;81.10
12819;DHT22;6474;53.474;9.894;2023-04-03T02:36:05;0.20;81.20
12819;DHT22;6474;53.474;9.894;2023-04-03T02:38:33;0.10;81.00
12819;DHT22;6474;53.474;9.894;2023-04-03T02:41:04;0.10;81.00
12819;DHT22;6474;53.474;9.894;2023-04-03T02:43:32;0.10;81.10
12819;DHT22;6474;53.474;9.894;2023-04-03T02:46:00;0.10;81.10
12819;DHT22;6474;53.474;9.894;2023-04-03T02:48:29;0.00;81.00
12819;DHT22;6474;53.474;9.894;2023-04-03T02:50:57;0.00;81.10
12819;DHT22;6474;53.474;9.894;2023-04-03T02:53:25;0.00;81.10
12819;DHT22;6474;53.474;9.894;2023-04-03T02:55:53;0.00;81.20
12819;DHT22;6474;53.474;9.894;2023-04-03T02:58:22;0.00;81.20
12819;DHT22;6474;53.474;9.894;2023-04-03T03:00:50;-0.10;81.00
12819;DHT22;6474;53.474;9.894;2023-04-03T03:03:17;-0.10;81.10
12819;DHT22;6474;53.474;9.894;2023-04-03T03:05:45;-0.10;81.10
12819;DHT22;6474;53.474;9.894;2023-04-03T03:08:14;-0.10;81.20
12819;DHT22;6474;53.474;9.894;2023-04-03T03:10:42;-0.10;81.20
12819;DHT22;6474;53.474;9.894;2023-04-03T03:13:11;-0.10;81.30
12819;DHT22;6474;53.474;9.894;2023-04-03T03:15:41;-0.20;81.20
12819;DHT22;6474;53.474;9.894;2023-04-03T03:18:09;-0.20;81.20
12819;DHT22;6474;53.474;9.894;2023-04-03T03:20:36;-0.20;81.20
12819;DHT22;6474;53.474;9.894;2023-04-03T03:23:04;-0.20;81.20
12819;DHT22;6474;53.474;9.894;2023-04-03T03:25:32;-0.20;81.10
12819;DHT22;6474;53.474;9.894;2023-04-03T03:28:00;-0.20;81.10
12819;DHT22;6474;53.474;9.894;2023-04-03T03:30:29;-0.20;81.10
12819;DHT22;6474;53.474;9.894;2023-04-03T03:32:58;-0.20;81.10
12819;DHT22;6474;53.474;9.894;2023-04-03T03:35:26;-0.20;81.90
12819;DHT22;6474;53.474;9.894;2023-04-03T03:37:54;-0.20;81.10
12819;DHT22;6474;53.474;9.894;2023-04-03T03:40:22;-0.30;81.10
12819;DHT22;6474;53.474;9.894;2023-04-03T03:42:51;-0.30;81.10
12819;DHT22;6474;53.474;9.894;2023-04-03T03:45:18;-0.30;81.10
12819;DHT22;6474;53.474;9.894;2023-04-03T03:47:47;-0.30;81.10
12819;DHT22;6474;53.474;9.894;2023-04-03T03:50:16;-0.20;81.20
12819;DHT22;6474;53.474;9.894;2023-04-03T03:52:44;-0.30;80.90
12819;DHT22;6474;53.474;9.894;2023-04-03T03:55:12;-0.30;80.90
12819;DHT22;6474;53.474;9.894;2023-04-03T03:57:40;-0.30;81.00
12819;DHT22;6474;53.474;9.894;2023-04-03T04:00:09;-0.30;80.90
12819;DHT22;6474;53.474;9.894;2023-04-03T04:02:37;-0.30;81.00
12819;DHT22;6474;53.474;9.894;2023-04-03T04:05:05;-0.30;80.90
12819;DHT22;6474;53.474;9.894;2023-04-03T04:07:35;-0.30;80.90
12819;DHT22;6474;53.474;9.894;2023-04-03T04:10:04;-0.30;81.50
12819;DHT22;6474;53.474;9.894;2023-04-03T04:12:31;-0.40;80.80
12819;DHT22;6474;53.474;9.894;2023-04-03T04:14:59;-0.40;80.80
12819;DHT22;6474;53.474;9.894;2023-04-03T04:17:27;-0.40;81.70
12819;DHT22;6474;53.474;9.894;2023-04-03T04:19:55;-0.40;81.00
12819;DHT22;6474;53.474;9.894;2023-04-03T04:22:23;-0.40;80.90
12819;DHT22;6474;53.474;9.894;2023-04-03T04:24:52;-0.40;80.90
12819;DHT22;6474;53.474;9.894;2023-04-03T04:27:20;-0.40;80.80
12819;DHT22;6474;53.474;9.894;2023-04-03T04:29:48;-0.40;80.90
12819;DHT22;6474;53.474;9.894;2023-04-03T04:32:15;-0.40;80.90
12819;DHT22;6474;53.474;9.894;2023-04-03T04:34:43;-0.40;80.90
12819;DHT22;6474;53.474;9.894;2023-04-03T04:37:11;-0.40;80.90
12819;DHT22;6474;53.474;9.894;2023-04-03T04:39:39;-0.50;80.80
12819;DHT22;6474;53.474;9.894;2023-04-03T04:42:08;-0.50;80.80
12819;DHT22;6474;53.474;9.894;2023-04-03T04:44:42;-0.50;80.80
12819;DHT22;6474;53.474;9.894;2023-04-03T04:47:10;-0.50;80.80
12819;DHT22;6474;53.474;9.894;2023-04-03T04:49:37;-0.50;80.80
12819;DHT22;6474;53.474;9.894;2023-04-03T04:52:05;-0.50;80.80
12819;DHT22;6474;53.474;9.894;2023-04-03T04:54:33;-0.50;80.80
12819;DHT22;6474;53.474;9.894;2023-04-03T04:57:01;-0.50;80.80
12819;DHT22;6474;53.474;9.894;2023-04-03T04:59:30;-0.50;80.80
12819;DHT22;6474;53.474;9.894;2023-04-03T05:01:58;-0.50;80.80
12819;DHT22;6474;53.474;9.894;2023-04-03T05:04:26;-0.50;80.80
12819;DHT22;6474;53.474;9.894;2023-04-03T05:06:54;-0.50;80.80
12819;DHT22;6474;53.474;9.894;2023-04-03T05:09:22;-0.50;80.80
12819;DHT22;6474;53.474;9.894;2023-04-03T05:11:49;-0.50;80.80
12819;DHT22;6474;53.474;9.894;2023-04-03T05:14:17;-0.50;80.80
12819;DHT22;6474;53.474;9.894;2023-04-03T05:16:46;-0.50;80.80
12819;DHT22;6474;53.474;9.894;2023-04-03T05:19:18;-0.50;80.80
12819;DHT22;6474;53.474;9.894;2023-04-03T05:21:46;-0.50;80.90
12819;DHT22;6474;53.474;9.894;2023-04-03T05:24:14;-0.50;80.90
12819;DHT22;6474;53.474;9.894;2023-04-03T05:26:43;-0.50;80.90
12819;DHT22;6474;53.474;9.894;2023-04-03T05:29:11;-0.50;80.90
12819;DHT22;6474;53.474;9.894;2023-04-03T05:31:39;-0.40;81.10
12819;DHT22;6474;53.474;9.894;2023-04-03T05:34:08;-0.40;81.10
12819;DHT22;6474;53.474;9.894;2023-04-03T05:36:36;-0.40;81.00
12819;DHT22;6474;53.474;9.894;2023-04-03T05:39:04;-0.40;81.10
12819;DHT22;6474;53.474;9.894;2023-04-03T05:41:32;-0.40;81.00
12819;DHT22;6474;53.474;9.894;2023-04-03T05:44:00;-0.40;81.00
12819;DHT22;6474;53.474;9.894;2023-04-03T05:46:28;-0.30;81.10
12819;DHT22;6474;53.474;9.894;2023-04-03T05:48:56;-0.20;81.20
12819;DHT22;6474;53.474;9.894;2023-04-03T05:51:28;-0.20;81.10
12819;DHT22;6474;53.474;9.894;2023-04-03T05:54:00;-0.20;81.10
12819;DHT22;6474;53.474;9.894;2023-04-03T05:56:30;-0.10;81.10
12819;DHT22;6474;53.474;9.894;2023-04-03T05:58:58;-0.10;81.00
12819;DHT22;6474;53.474;9.894;2023-04-03T06:01:26;0.00;80.90
12819;DHT22;6474;53.474;9.894;2023-04-03T06:03:54;0.10;81.00
12819;DHT22;6474;53.474;9.894;2023-04-03T06:06:22;0.20;81.20
12819;DHT22;6474;53.474;9.894;2023-04-03T06:08:52;0.20;81.20
12819;DHT22;6474;53.474;9.894;2023-04-03T06:11:19;0.30;81.00
12819;DHT22;6474;53.474;9.894;2023-04-03T06:13:48;0.40;81.00
12819;DHT22;6474;53.474;9.894;2023-04-03T06:16:17;0.50;80.90
12819;DHT22;6474;53.474;9.894;2023-04-03T06:18:46;0.50;80.90
12819;DHT22;6474;53.474;9.894;2023-04-03T06:21:13;0.70;80.90
12819;DHT22;6474;53.474;9.894;2023-04-03T06:23:41;0.70;80.80
12819;DHT22;6474;53.474;9.894;2023-04-03T07:05:58;2.30;81.10
12819;DHT22;6474;53.474;9.894;2023-04-03T07:08:26;2.40;81.10
12819;DHT22;6474;53.474;9.894;2023-04-03T07:10:54;2.50;81.90
12819;DHT22;6474;53.474;9.894;2023-04-03T07:13:22;2.60;81.20
12819;DHT22;6474;53.474;9.894;2023-04-03T07:15:50;2.70;81.40
12819;DHT22;6474;53.474;9.894;2023-04-03T07:18:18;2.80;81.50
12819;DHT22;6474;53.474;9.894;2023-04-03T07:20:48;2.90;81.60
12819;DHT22;6474;53.474;9.894;2023-04-03T07:23:17;3.00;81.60
12819;DHT22;6474;53.474;9.894;2023-04-03T07:25:46;3.10;81.70
12819;DHT22;6474;53.474;9.894;2023-04-03T07:28:15;3.20;81.70
12819;DHT22;6474;53.474;9.894;2023-04-03T07:30:43;3.30;81.80
12819;DHT22;6474;53.474;9.894;2023-04-03T07:33:13;3.40;81.80
12819;DHT22;6474;53.474;9.894;2023-04-03T07:35:43;3.50;82.00
12819;DHT22;6474;53.474;9.894;2023-04-03T07:38:11;3.60;82.10
12819;DHT22;6474;53.474;9.894;2023-04-03T07:40:45;3.70;82.20
12819;DHT22;6474;53.474;9.894;2023-04-03T07:43:14;3.80;82.20
12819;DHT22;6474;53.474;9.894;2023-04-03T07:45:42;3.90;82.20
12819;DHT22;6474;53.474;9.894;2023-04-03T07:48:11;3.90;82.10
12819;DHT22;6474;53.474;9.894;2023-04-03T07:50:40;4.00;82.20
12819;DHT22;6474;53.474;9.894;2023-04-03T07:53:08;4.10;82.20
12819;DHT22;6474;53.474;9.894;2023-04-03T07:55:36;4.10;82.20
12819;DHT22;6474;53.474;9.894;2023-04-03T07:58:12;4.20;82.30
12819;DHT22;6474;53.474;9.894;2023-04-03T08:00:41;4.20;82.40
12819;DHT22;6474;53.474;9.894;2023-04-03T08:03:10;4.30;82.50
12819;DHT22;6474;53.474;9.894;2023-04-03T08:05:39;4.30;82.60
12819;DHT22;6474;53.474;9.894;2023-04-03T08:08:09;4.40;82.70
12819;DHT22;6474;53.474;9.894;2023-04-03T08:10:37;4.50;82.80
12819;DHT22;6474;53.474;9.894;2023-04-03T08:13:05;4.50;82.70
12819;DHT22;6474;53.474;9.894;2023-04-03T08:15:35;4.60;82.80
12819;DHT22;6474;53.474;9.894;2023-04-03T08:18:04;4.60;83.40
12819;DHT22;6474;53.474;9.894;2023-04-03T08:20:32;4.70;82.80
12819;DHT22;6474;53.474;9.894;2023-04-03T08:23:00;4.70;82.80
12819;DHT22;6474;53.474;9.894;2023-04-03T08:25:28;4.70;82.90
12819;DHT22;6474;53.474;9.894;2023-04-03T08:27:56;4.80;83.10
12819;DHT22;6474;53.474;9.894;2023-04-03T08:30:24;4.80;83.00
12819;DHT22;6474;53.474;9.894;2023-04-03T08:32:54;4.90;83.20
12819;DHT22;6474;53.474;9.894;2023-04-03T08:35:22;4.90;83.30
12819;DHT22;6474;53.474;9.894;2023-04-03T08:37:49;5.00;83.30
12819;DHT22;6474;53.474;9.894;2023-04-03T08:40:17;5.00;83.30
12819;DHT22;6474;53.474;9.894;2023-04-03T08:42:54;5.00;83.40
12819;DHT22;6474;53.474;9.894;2023-04-03T08:45:30;5.00;83.30
12819;DHT22;6474;53.474;9.894;2023-04-03T08:48:06;5.10;83.50
12819;DHT22;6474;53.474;9.894;2023-04-03T08:50:38;5.20;83.60
12819;DHT22;6474;53.474;9.894;2023-04-03T08:53:12;5.20;83.70
12819;DHT22;6474;53.474;9.894;2023-04-03T08:55:47;5.20;83.70
12819;DHT22;6474;53.474;9.894;2023-04-03T08:58:16;5.20;83.70
12819;DHT22;6474;53.474;9.894;2023-04-03T09:00:48;5.30;84.50
12819;DHT22;6474;53.474;9.894;2023-04-03T09:03:20;5.40;83.80
12819;DHT22;6474;53.474;9.894;2023-04-03T09:05:52;5.40;83.80
12819;DHT22;6474;53.474;9.894;2023-04-03T09:08:26;5.40;83.80
12819;DHT22;6474;53.474;9.894;2023-04-03T09:11:09;5.50;83.90
12819;DHT22;6474;53.474;9.894;2023-04-03T09:13:46;5.50;83.80
12819;DHT22;6474;53.474;9.894;2023-04-03T09:16:24;5.60;83.70
12819;DHT22;6474;53.474;9.894;2023-04-03T09:18:59;5.70;83.60
12819;DHT22;6474;53.474;9.894;2023-04-03T09:21:34;5.70;83.50
12819;DHT22;6474;53.474;9.894;2023-04-03T09:24:05;5.70;83.40
12819;DHT22;6474;53.474;9.894;2023-04-03T09:26:36;5.60;83.20
12819;DHT22;6474;53.474;9.894;2023-04-03T09:29:07;5.60;83.10
12819;DHT22;6474;53.474;9.894;2023-04-03T09:31:38;5.50;83.30
12819;DHT22;6474;53.474;9.894;2023-04-03T09:34:15;5.50;83.50
12819;DHT22;6474;53.474;9.894;2023-04-03T09:36:46;5.60;83.60
12819;DHT22;6474;53.474;9.894;2023-04-03T09:39:18;5.60;83.40
12819;DHT22;6474;53.474;9.894;2023-04-03T09:41:58;5.60;83.40
12819;DHT22;6474;53.474;9.894;2023-04-03T09:44:28;5.60;83.40
12819;DHT22;6474;53.474;9.894;2023-04-03T09:46:57;5.70;83.60
12819;DHT22;6474;53.474;9.894;2023-04-03T09:49:26;5.80;83.70
12819;DHT22;6474;53.474;9.894;2023-04-03T09:51:54;5.90;83.60
12819;DHT22;6474;53.474;9.894;2023-04-03T09:54:32;6.00;83.60
12819;DHT22;6474;53.474;9.894;2023-04-03T09:57:07;6.10;83.50
12819;DHT22;6474;53.474;9.894;2023-04-03T09:59:40;6.20;83.50
12819;DHT22;6474;53.474;9.894;2023-04-03T10:02:30;6.30;83.50
12819;DHT22;6474;53.474;9.894;2023-04-03T10:05:01;6.40;83.40
12819;DHT22;6474;53.474;9.894;2023-04-03T10:07:37;6.40;83.20
12819;DHT22;6474;53.474;9.894;2023-04-03T10:10:18;6.50;83.40
12819;DHT22;6474;53.474;9.894;2023-04-03T10:13:04;6.60;83.50
12819;DHT22;6474;53.474;9.894;2023-04-03T10:15:36;6.70;83.50
12819;DHT22;6474;53.474;9.894;2023-04-03T10:18:15;6.70;83.50
12819;DHT22;6474;53.474;9.894;2023-04-03T10:20:52;6.80;83.40
12819;DHT22;6474;53.474;9.894;2023-04-03T10:23:26;6.90;83.30
12819;DHT22;6474;53.474;9.894;2023-04-03T10:26:06;6.90;83.30
12819;DHT22;6474;53.474;9.894;2023-04-03T10:28:47;7.00;83.30
12819;DHT22;6474;53.474;9.894;2023-04-03T10:31:23;7.10;83.10
12819;DHT22;6474;53.474;9.894;2023-04-03T10:33:59;7.20;83.10
12819;DHT22;6474;53.474;9.894;2023-04-03T10:36:36;7.10;82.90
12819;DHT22;6474;53.474;9.894;2023-04-03T10:39:15;7.20;82.90
12819;DHT22;6474;53.474;9.894;2023-04-03T10:41:55;7.30;82.90
12819;DHT22;6474;53.474;9.894;2023-04-03T10:44:54;7.40;82.90
12819;DHT22;6474;53.474;9.894;2023-04-03T10:47:28;7.40;82.60
12819;DHT22;6474;53.474;9.894;2023-04-03T10:50:12;7.30;82.30
12819;DHT22;6474;53.474;9.894;2023-04-03T10:52:49;7.20;82.30
12819;DHT22;6474;53.474;9.894;2023-04-03T10:55:28;7.10;82.50
12819;DHT22;6474;53.474;9.894;2023-04-03T10:57:59;7.20;82.70
12819;DHT22;6474;53.474;9.894;2023-04-03T11:00:35;7.30;82.80
12819;DHT22;6474;53.474;9.894;2023-04-03T11:03:06;7.20;82.50
12819;DHT22;6474;53.474;9.894;2023-04-03T11:05:42;7.10;82.50
12819;DHT22;6474;53.474;9.894;2023-04-03T11:08:19;7.10;82.40
12819;DHT22;6474;53.474;9.894;2023-04-03T11:10:50;7.00;82.50
12819;DHT22;6474;53.474;9.894;2023-04-03T11:13:22;7.10;82.80
12819;DHT22;6474;53.474;9.894;2023-04-03T11:15:53;7.20;82.80
12819;DHT22;6474;53.474;9.894;2023-04-03T11:18:26;7.40;82.90
12819;DHT22;6474;53.474;9.894;2023-04-03T11:21:00;7.50;82.70
12819;DHT22;6474;53.474;9.894;2023-04-03T11:23:34;7.70;82.70
12819;DHT22;6474;53.474;9.894;2023-04-03T11:26:17;7.70;82.20
12819;DHT22;6474;53.474;9.894;2023-04-03T11:28:52;7.70;82.10
12819;DHT22;6474;53.474;9.894;2023-04-03T11:31:29;7.70;82.30
12819;DHT22;6474;53.474;9.894;2023-04-03T11:34:08;7.90;82.50
12819;DHT22;6474;53.474;9.894;2023-04-03T11:36:44;8.00;82.50
12819;DHT22;6474;53.474;9.894;2023-04-03T11:39:20;8.20;82.50
12819;DHT22;6474;53.474;9.894;2023-04-03T11:41:50;8.20;81.90
12819;DHT22;6474;53.474;9.894;2023-04-03T11:44:35;8.10;81.70
12819;DHT22;6474;53.474;9.894;2023-04-03T11:47:04;8.10;81.80
12819;DHT22;6474;53.474;9.894;2023-04-03T11:49:58;8.10;82.10
12819;DHT22;6474;53.474;9.894;2023-04-03T11:52:55;8.10;82.00
12819;DHT22;6474;53.474;9.894;2023-04-03T11:55:52;8.00;81.80
12819;DHT22;6474;53.474;9.894;2023-04-03T11:58:21;7.90;81.80
12819;DHT22;6474;53.474;9.894;2023-04-03T12:00:56;7.90;82.20
12819;DHT22;6474;53.474;9.894;2023-04-03T12:03:32;8.00;82.30
12819;DHT22;6474;53.474;9.894;2023-04-03T12:09:04;7.90;81.70
12819;DHT22;6474;53.474;9.894;2023-04-03T12:11:51;7.80;81.90
12819;DHT22;6474;53.474;9.894;2023-04-03T12:14:22;7.60;81.90
12819;DHT22;6474;53.474;9.894;2023-04-03T12:16:53;7.60;82.30
12819;DHT22;6474;53.474;9.894;2023-04-03T12:19:31;7.70;82.70
12819;DHT22;6474;53.474;9.894;2023-04-03T12:22:14;7.90;83.00
12819;DHT22;6474;53.474;9.894;2023-04-03T12:24:43;8.20;83.20
12819;DHT22;6474;53.474;9.894;2023-04-03T12:27:36;8.40;82.90
12819;DHT22;6474;53.474;9.894;2023-04-03T12:30:14;8.60;82.70
12819;DHT22;6474;53.474;9.894;2023-04-03T12:35:44;8.90;82.40
12819;DHT22;6474;53.474;9.894;2023-04-03T12:41:23;8.90;81.70
12819;DHT22;6474;53.474;9.894;2023-04-03T12:44:15;8.60;81.10
12819;DHT22;6474;53.474;9.894;2023-04-03T12:46:48;8.40;81.90
12819;DHT22;6474;53.474;9.894;2023-04-03T12:49:33;8.20;81.60
12819;DHT22;6474;53.474;9.894;2023-04-03T12:52:05;8.20;81.80
12819;DHT22;6474;53.474;9.894;2023-04-03T12:54:36;8.30;81.90
12819;DHT22;6474;53.474;9.894;2023-04-03T12:57:10;8.40;82.00
12819;DHT22;6474;53.474;9.894;2023-04-03T12:59:40;8.40;82.60
12819;DHT22;6474;53.474;9.894;2023-04-03T13:02:20;8.20;81.50
12819;DHT22;6474;53.474;9.894;2023-04-03T13:04:50;8.00;81.40
12819;DHT22;6474;53.474;9.894;2023-04-03T13:07:21;8.00;81.60
12819;DHT22;6474;53.474;9.894;2023-04-03T13:09:56;8.00;81.80
12819;DHT22;6474;53.474;9.894;2023-04-03T13:12:25;8.10;82.10
12819;DHT22;6474;53.474;9.894;2023-04-03T13:14:58;8.30;82.10
12819;DHT22;6474;53.474;9.894;2023-04-03T13:17:26;8.40;82.00
12819;DHT22;6474;53.474;9.894;2023-04-03T13:19:55;8.50;81.90
12819;DHT22;6474;53.474;9.894;2023-04-03T13:22:38;8.50;81.90
12819;DHT22;6474;53.474;9.894;2023-04-03T13:25:13;8.60;81.90
12819;DHT22;6474;53.474;9.894;2023-04-03T13:27:43;8.60;81.80
12819;DHT22;6474;53.474;9.894;2023-04-03T13:30:25;8.60;81.90
12819;DHT22;6474;53.474;9.894;2023-04-03T13:32:55;8.70;82.70
12819;DHT22;6474;53.474;9.894;2023-04-03T13:35:30;8.80;81.90
12819;DHT22;6474;53.474;9.894;2023-04-03T13:38:01;8.90;82.20
12819;DHT22;6474;53.474;9.894;2023-04-03T13:40:29;8.90;82.20
12819;DHT22;6474;53.474;9.894;2023-04-03T13:43:18;9.10;82.30
12819;DHT22;6474;53.474;9.894;2023-04-03T13:45:58;9.10;82.00
12819;DHT22;6474;53.474;9.894;2023-04-03T13:48:27;9.20;81.80
12819;DHT22;6474;53.474;9.894;2023-04-03T13:51:00;9.20;81.40
12819;DHT22;6474;53.474;9.894;2023-04-03T13:53:30;9.00;81.00
12819;DHT22;6474;53.474;9.894;2023-04-03T13:56:05;8.70;81.10
12819;DHT22;6474;53.474;9.894;2023-04-03T13:58:36;8.40;80.40
12819;DHT22;6474;53.474;9.894;2023-04-03T14:01:18;8.30;81.00
12819;DHT22;6474;53.474;9.894;2023-04-03T14:03:53;8.30;81.40
12819;DHT22;6474;53.474;9.894;2023-04-03T14:06:22;8.30;81.50
12819;DHT22;6474;53.474;9.894;2023-04-03T14:08:51;8.40;81.40
12819;DHT22;6474;53.474;9.894;2023-04-03T14:11:21;8.40;81.30
12819;DHT22;6474;53.474;9.894;2023-04-03T14:13:50;8.50;81.20
12819;DHT22;6474;53.474;9.894;2023-04-03T14:16:22;8.50;81.00
12819;DHT22;6474;53.474;9.894;2023-04-03T14:18:52;8.60;81.00
12819;DHT22;6474;53.474;9.894;2023-04-03T14:21:20;8.60;80.90
12819;DHT22;6474;53.474;9.894;2023-04-03T14:23:49;8.60;80.70
12819;DHT22;6474;53.474;9.894;2023-04-03T14:26:18;8.60;80.70
12819;DHT22;6474;53.474;9.894;2023-04-03T14:28:48;8.60;80.50
12819;DHT22;6474;53.474;9.894;2023-04-03T14:31:16;8.50;80.40
12819;DHT22;6474;53.474;9.894;2023-04-03T14:33:46;8.50;80.60
12819;DHT22;6474;53.474;9.894;2023-04-03T14:36:15;8.60;80.70
12819;DHT22;6474;53.474;9.894;2023-04-03T14:38:44;8.50;80.50
12819;DHT22;6474;53.474;9.894;2023-04-03T14:41:13;8.50;80.40
12819;DHT22;6474;53.474;9.894;2023-04-03T14:43:43;8.50;80.30
12819;DHT22;6474;53.474;9.894;2023-04-03T14:46:14;8.50;80.30
12819;DHT22;6474;53.474;9.894;2023-04-03T14:48:44;8.50;80.20
12819;DHT22;6474;53.474;9.894;2023-04-03T14:51:14;8.50;80.20
12819;DHT22;6474;53.474;9.894;2023-04-03T14:53:43;8.50;80.30
12819;DHT22;6474;53.474;9.894;2023-04-03T14:56:13;8.50;80.30
12819;DHT22;6474;53.474;9.894;2023-04-03T14:58:41;8.50;80.30
12819;DHT22;6474;53.474;9.894;2023-04-03T15:01:10;8.50;80.20
12819;DHT22;6474;53.474;9.894;2023-04-03T15:03:40;8.40;80.10
12819;DHT22;6474;53.474;9.894;2023-04-03T15:06:09;8.40;80.00
12819;DHT22;6474;53.474;9.894;2023-04-03T15:08:40;8.40;80.10
12819;DHT22;6474;53.474;9.894;2023-04-03T15:11:09;8.30;80.00
12819;DHT22;6474;53.474;9.894;2023-04-03T15:13:37;8.20;80.00
12819;DHT22;6474;53.474;9.894;2023-04-03T15:16:09;8.20;80.00
12819;DHT22;6474;53.474;9.894;2023-04-03T15:18:39;8.10;80.00
12819;DHT22;6474;53.474;9.894;2023-04-03T15:21:07;8.10;80.10
12819;DHT22;6474;53.474;9.894;2023-04-03T15:23:35;8.10;80.10
12819;DHT22;6474;53.474;9.894;2023-04-03T15:26:04;8.00;80.00
12819;DHT22;6474;53.474;9.894;2023-04-03T15:28:35;8.00;80.10
12819;DHT22;6474;53.474;9.894;2023-04-03T15:31:03;7.90;80.00
12819;DHT22;6474;53.474;9.894;2023-04-03T15:33:32;7.90;80.00
12819;DHT22;6474;53.474;9.894;2023-04-03T15:36:00;7.90;80.10
12819;DHT22;6474;53.474;9.894;2023-04-03T15:38:33;7.90;80.10
12819;DHT22;6474;53.474;9.894;2023-04-03T15:41:01;7.90;80.10
12819;DHT22;6474;53.474;9.894;2023-04-03T15:43:30;7.80;80.00
12819;DHT22;6474;53.474;9.894;2023-04-03T15:46:00;7.80;80.00
12819;DHT22;6474;53.474;9.894;2023-04-03T15:48:28;7.80;80.00
12819;DHT22;6474;53.474;9.894;2023-04-03T15:50:57;7.70;79.90
12819;DHT22;6474;53.474;9.894;2023-04-03T15:53:25;7.70;79.90
12819;DHT22;6474;53.474;9.894;2023-04-03T15:55:53;7.70;80.00
12819;DHT22;6474;53.474;9.894;2023-04-03T15:58:20;7.60;79.90
12819;DHT22;6474;53.474;9.894;2023-04-03T16:00:50;7.60;79.90
12819;DHT22;6474;53.474;9.894;2023-04-03T16:03:19;7.60;79.80
12819;DHT22;6474;53.474;9.894;2023-04-03T16:05:48;7.50;79.70
12819;DHT22;6474;53.474;9.894;2023-04-03T16:08:17;7.50;79.70
12819;DHT22;6474;53.474;9.894;2023-04-03T16:10:46;7.50;79.80
12819;DHT22;6474;53.474;9.894;2023-04-03T16:13:14;7.40;79.60
12819;DHT22;6474;53.474;9.894;2023-04-03T16:15:42;7.40;79.70
12819;DHT22;6474;53.474;9.894;2023-04-03T16:18:11;7.40;79.70
12819;DHT22;6474;53.474;9.894;2023-04-03T16:20:43;7.30;79.60
12819;DHT22;6474;53.474;9.894;2023-04-03T16:23:12;7.30;79.70
12819;DHT22;6474;53.474;9.894;2023-04-03T16:25:39;7.30;79.70
12819;DHT22;6474;53.474;9.894;2023-04-03T16:28:12;7.30;79.70
12819;DHT22;6474;53.474;9.894;2023-04-03T16:30:40;7.20;79.50
12819;DHT22;6474;53.474;9.894;2023-04-03T16:33:08;7.20;79.60
12819;DHT22;6474;53.474;9.894;2023-04-03T16:35:41;7.20;79.60
12819;DHT22;6474;53.474;9.894;2023-04-03T16:38:10;7.10;79.50
12819;DHT22;6474;53.474;9.894;2023-04-03T16:40:38;7.10;79.50
12819;DHT22;6474;53.474;9.894;2023-04-03T16:43:07;7.10;79.50
12819;DHT22;6474;53.474;9.894;2023-04-03T16:45:35;7.00;79.40
12819;DHT22;6474;53.474;9.894;2023-04-03T16:48:04;7.00;79.40
12819;DHT22;6474;53.474;9.894;2023-04-03T16:50:32;7.00;79.40
12819;DHT22;6474;53.474;9.894;2023-04-03T16:53:04;6.90;79.30
12819;DHT22;6474;53.474;9.894;2023-04-03T16:55:35;6.90;79.30
12819;DHT22;6474;53.474;9.894;2023-04-03T16:58:03;6.80;79.20
12819;DHT22;6474;53.474;9.894;2023-04-03T17:00:31;6.80;79.30
12819;DHT22;6474;53.474;9.894;2023-04-03T17:03:02;6.70;79.20
12819;DHT22;6474;53.474;9.894;2023-04-03T17:05:30;6.70;79.20
12819;DHT22;6474;53.474;9.894;2023-04-03T17:07:58;6.70;79.30
12819;DHT22;6474;53.474;9.894;2023-04-03T17:10:28;6.60;79.20
12819;DHT22;6474;53.474;9.894;2023-04-03T17:12:57;6.60;80.00
12819;DHT22;6474;53.474;9.894;2023-04-03T17:15:24;6.50;79.20